Latest Weather Observations for Dunalley

IDT60901

Issued at 10:11 pm EST Saturday 25 June 2016 (issued every 10 minutes, with the page automatically refreshed every 10 minutes)

About weather observations | Map of Hobart area stations | Latest observations for Hobart area | Other Formats
Station Details ID: 094254 Name: DUNALLEY (STROUD POINT) Lat: -42.90 Lon: 147.79 Height: 12.43 m
Data from the previous 72 hours. | See also: Recent months at Dunalley
Date/Time
EST
Tmp

°C
App
Tmp
°C
Dew
Point
°C
Rel
Hum
%
Delta-T

°C
Wind Press
QNH
hPa
Press
MSL
hPa
Rain
since
9 am
mm
Dir
 
Spd
km/h
Gust
km/h
Spd
kts
Gust
kts
25/10:00pm 8.6 3.2 4.6 76 1.8 NW 22 28 12 15 1016.0 1016.1 0.0
25/09:30pm 8.6 3.6 4.4 75 1.8 NW 20 30 11 16 1016.1 1016.2 0.0
25/09:00pm 8.7 3.3 4.5 75 1.8 WNW 22 30 12 16 1016.2 1016.3 0.0
25/08:30pm 8.9 3.5 4.3 73 2.0 NW 22 30 12 16 1016.3 1016.4 0.0
25/08:00pm 8.7 3.6 4.1 73 2.0 NW 20 28 11 15 1016.4 1016.5 0.0
25/07:30pm 8.4 3.6 4.4 76 1.8 W 19 22 10 12 1016.5 1016.6 0.0
25/07:00pm 8.2 3.7 4.2 76 1.7 W 17 20 9 11 1016.4 1016.5 0.0
25/06:30pm 8.9 4.4 4.1 72 2.1 W 17 22 9 12 1016.4 1016.5 0.0
25/06:00pm 8.9 4.3 3.7 70 2.2 NW 17 22 9 12 1016.4 1016.5 0.0
25/05:30pm 8.7 4.4 3.5 70 2.2 NW 15 20 8 11 1016.3 1016.4 0.0
25/05:00pm 8.4 4.6 3.7 72 2.0 W 13 17 7 9 1016.2 1016.3 0.0
25/04:30pm 8.8 5.6 3.2 68 2.4 W 9 13 5 7 1016.2 1016.3 0.0
25/04:00pm 8.9 5.3 2.9 66 2.5 WNW 11 17 6 9 1016.1 1016.2 0.0
25/03:30pm 9.5 5.9 2.8 63 2.9 W 11 17 6 9 1016.1 1016.2 0.0
25/03:00pm 10.0 4.8 2.6 60 3.2 W 19 24 10 13 1016.1 1016.2 0.0
25/02:30pm 9.9 4.3 3.2 63 2.9 W 22 28 12 15 1016.1 1016.2 0.0
25/02:00pm 9.6 2.5 3.4 65 2.7 W 30 35 16 19 1016.1 1016.2 0.0
25/01:30pm 9.7 2.1 3.0 63 2.9 W 32 35 17 19 1016.2 1016.3 0.0
25/01:00pm 9.4 2.1 2.7 63 2.8 W 30 35 16 19 1016.3 1016.4 0.0
25/12:30pm 9.1 0.9 2.9 65 2.6 W 35 41 19 22 1016.4 1016.5 0.0
25/12:00pm 8.9 1.3 2.7 65 2.6 W 32 41 17 22 1016.5 1016.6 0.0
25/11:30am 8.6 2.7 2.0 63 2.7 W 22 28 12 15 1016.7 1016.8 0.0
25/11:00am 8.1 2.6 2.1 66 2.5 W 20 26 11 14 1016.8 1016.9 0.0
25/10:30am 7.6 2.3 1.7 66 2.4 W 19 28 10 15 1017.0 1017.1 0.0
25/10:00am 6.6 1.2 1.3 69 2.1 W 19 24 10 13 1016.9 1017.0 0.0
25/09:30am 6.3 0.7 1.2 70 2.0 W 20 28 11 15 1016.7 1016.8 0.0
25/09:00am 5.7 0.1 1.1 72 1.8 W 20 26 11 14 1016.3 1016.4 0.0
25/08:30am 5.0 -0.5 0.4 72 1.8 W 19 22 10 12 1016.0 1016.1 0.0
25/08:00am 6.3 -1.5 1.8 73 1.8 W 32 39 17 21 1015.6 1015.7 0.0
25/07:30am 6.4 -1.3 2.1 74 1.7 W 32 37 17 20 1015.3 1015.4 0.0
25/07:00am 6.4 -1.6 1.9 73 1.8 W 33 39 18 21 1015.0 1015.1 0.0
25/06:30am 6.3 -2.1 1.4 71 2.0 W 35 41 19 22 1014.6 1014.7 0.0
25/06:00am 6.4 -2.0 1.5 71 2.0 W 35 44 19 24 1014.0 1014.1 0.0
25/05:30am 6.7 -2.4 1.8 71 2.0 WSW 39 48 21 26 1013.7 1013.8 0.0
25/05:27am 6.5 -1.9 1.4 70 2.0 W 35 48 19 26 1013.8 1013.9 0.0
25/05:00am 5.1 -0.1 0.3 71 1.8 W 17 30 9 16 1013.6 1013.7 0.0
25/04:30am 4.5 -0.7 0.1 73 1.7 NW 17 22 9 12 1013.2 1013.3 0.0
25/04:00am 4.6 -0.9 0.4 74 1.6 W 19 24 10 13 1013.1 1013.2 0.0
25/03:30am 4.8 -0.9 0.4 73 1.7 W 20 30 11 16 1012.8 1012.9 0.0
25/03:00am 5.0 -0.7 0.4 72 1.8 W 20 30 11 16 1012.5 1012.6 0.0
25/02:30am 5.1 -1.4 0.3 71 1.8 W 24 32 13 17 1012.2 1012.2 0.0
25/02:00am 4.9 -0.8 0.3 72 1.8 W 20 28 11 15 1011.9 1011.9 0.0
25/01:30am 5.1 -0.4 0.5 72 1.8 W 19 24 10 13 1011.5 1011.5 0.0
25/01:00am 6.6 -2.9 1.7 71 2.0 W 41 46 22 25 1010.9 1010.9 0.0
25/12:30am 6.5 -2.5 2.4 75 1.7 W 39 48 21 26 1010.7 1010.7 0.0
25/12:00am 6.5 -3.0 2.0 73 1.8 WSW 41 48 22 26 1010.4 1010.4 0.0
 
Date/Time
EST
Tmp

°C
App
Tmp
°C
Dew
Point
°C
Rel
Hum
%
Delta-T

°C
Wind Press
QNH
hPa
Press
MSL
hPa
Rain
since
9 am
mm
Dir
 
Spd
km/h
Gust
km/h
Spd
kts
Gust
kts
24/11:30pm 6.4 -1.8 2.5 76 1.6 WSW 35 43 19 23 1010.1 1010.1 0.0
24/11:00pm 6.4 -1.8 2.7 77 1.5 WSW 35 39 19 21 1009.6 1009.6 0.0
24/10:30pm 6.3 -1.4 2.4 76 1.6 WSW 32 35 17 19 1009.5 1009.5 0.0
24/10:00pm 6.4 -1.4 3.0 79 1.4 WSW 33 37 18 20 1009.3 1009.3 0.0
24/09:30pm 6.4 -1.3 3.2 80 1.3 WSW 33 39 18 21 1008.9 1008.9 0.0
24/09:00pm 6.4 -1.7 3.0 79 1.4 WSW 35 44 19 24 1008.1 1008.1 0.0
24/08:30pm 6.6 -1.9 3.4 80 1.3 SW 37 44 20 24 1007.9 1007.9 0.0
24/08:00pm 7.1 -0.7 2.6 73 1.9 WSW 33 44 18 24 1007.2 1007.2 0.0
24/07:30pm 6.9 -0.7 3.0 76 1.6 WSW 32 35 17 19 1006.6 1006.6 0.0
24/07:00pm 6.8 -0.4 2.9 76 1.6 WSW 30 35 16 19 1005.9 1005.9 0.0
24/06:30pm 6.9 -0.7 2.8 75 1.7 W 32 39 17 21 1004.9 1004.9 0.0
24/06:00pm 7.4 -0.4 2.7 72 2.0 WSW 33 39 18 21 1004.3 1004.3 0.0
24/05:30pm 7.8 -0.4 2.7 70 2.1 WSW 35 39 19 21 1003.7 1003.7 0.0
24/05:00pm 7.9 0.7 3.0 71 2.1 WSW 30 35 16 19 1003.1 1003.1 0.0
24/04:30pm 7.8 0.5 2.7 70 2.1 W 30 33 16 18 1002.4 1002.4 0.0
24/04:00pm 8.2 0.9 2.4 67 2.4 WSW 30 33 16 18 1001.8 1001.8 0.0
24/03:30pm 8.7 2.6 2.7 66 2.5 SW 24 28 13 15 1001.0 1001.0 0.0
24/03:00pm 8.3 2.8 2.1 65 2.6 W 20 24 11 13 1000.5 1000.5 0.0
24/02:30pm 8.7 3.9 2.5 65 2.6 W 17 20 9 11 1000.1 1000.1 0.0
24/02:00pm 8.6 4.1 2.4 65 2.6 W 15 20 8 11 999.8 999.8 0.0
24/01:30pm 8.5 4.0 2.1 64 2.7 W 15 22 8 12 999.5 999.5 0.0
24/01:00pm 8.0 2.7 2.0 66 2.5 WNW 19 24 10 13 999.0 999.0 0.0
24/12:30pm 7.5 2.2 2.0 68 2.3 WNW 19 24 10 13 998.8 998.8 0.0
24/12:00pm 7.8 2.5 2.1 67 2.4 WNW 19 24 10 13 998.8 998.8 0.0
24/11:30am 7.3 2.3 1.6 67 2.3 WNW 17 22 9 12 998.4 998.4 0.0
24/11:00am 6.8 1.9 1.7 70 2.1 WNW 17 22 9 12 998.2 998.2 0.0
24/10:30am 6.8 1.8 1.5 69 2.1 WNW 17 20 9 11 998.0 998.0 0.0
24/10:00am 6.7 2.5 1.6 70 2.1 NNW 13 20 7 11 997.7 997.7 0.0
24/09:30am 6.2 1.6 1.5 72 1.9 NNW 15 20 8 11 997.4 997.4 0.0
24/09:00am 6.0 1.3 1.2 71 1.9 NNW 15 22 8 12 997.1 997.1 9.0
24/08:30am 5.4 0.3 1.0 73 1.7 NW 17 24 9 13 996.6 996.6 9.0
24/08:00am 4.4 0.5 0.9 78 1.4 NW 11 15 6 8 996.6 996.6 9.0
24/07:30am 4.8 2.5 0.4 73 1.7 NW 2 7 1 4 996.3 996.3 9.0
24/07:00am 4.5 0.9 0.8 77 1.4 NW 9 11 5 6 995.7 995.7 9.0
24/06:30am 4.3 0.8 1.2 80 1.2 NW 9 13 5 7 995.6 995.6 9.0
24/06:00am 4.9 1.3 0.5 73 1.7 NNW 9 15 5 8 995.1 995.1 9.0
24/05:30am 3.8 0.1 0.1 77 1.4 NW 9 13 5 7 994.9 994.9 9.0
24/05:00am 5.3 1.7 0.7 72 1.8 NW 9 15 5 8 994.4 994.4 9.0
24/04:30am 5.2 0.8 0.6 72 1.8 NNW 13 15 7 8 994.2 994.2 9.0
24/04:00am 5.2 0.9 0.8 73 1.7 NNW 13 19 7 10 994.1 994.1 9.0
24/03:30am 5.5 0.4 0.9 72 1.8 NNW 17 22 9 12 994.0 994.0 9.0
24/03:00am 5.0 0.7 0.8 74 1.6 NW 13 17 7 9 993.9 993.9 9.0
24/02:30am 5.7 2.1 0.9 71 1.9 NW 9 13 5 7 993.5 993.5 9.0
24/02:00am 5.4 1.8 0.8 72 1.8 NW 9 13 5 7 993.3 993.3 9.0
24/01:30am 5.8 0.7 1.0 71 1.9 NNW 17 20 9 11 992.9 992.9 9.0
24/01:00am 5.9 1.2 1.2 72 1.9 NW 15 24 8 13 992.7 992.7 9.0
24/12:30am 5.9 1.3 1.4 73 1.8 NW 15 20 8 11 993.0 993.0 9.0
24/12:00am 6.3 1.0 1.6 72 1.9 NW 19 28 10 15 992.8 992.8 9.0
 
Date/Time
EST
Tmp

°C
App
Tmp
°C
Dew
Point
°C
Rel
Hum
%
Delta-T

°C
Wind Press
QNH
hPa
Press
MSL
hPa
Rain
since
9 am
mm
Dir
 
Spd
km/h
Gust
km/h
Spd
kts
Gust
kts
23/11:30pm 6.5 1.6 2.0 73 1.8 NW 17 24 9 13 992.5 992.5 9.0
23/11:00pm 6.3 1.5 2.4 76 1.6 NW 17 24 9 13 992.3 992.3 9.0
23/10:30pm 6.3 1.5 2.8 78 1.4 NW 17 24 9 13 992.2 992.2 9.0
23/10:00pm 6.6 3.0 3.0 78 1.5 NW 11 17 6 9 992.3 992.3 9.0
23/09:30pm 6.8 1.5 3.2 78 1.5 NW 20 26 11 14 992.2 992.2 9.0
23/09:00pm 6.8 2.6 3.6 80 1.4 WNW 15 22 8 12 991.7 991.7 9.0
23/08:30pm 6.8 2.6 3.8 81 1.3 WSW 15 22 8 12 991.2 991.2 9.0
23/08:00pm 6.7 2.9 4.0 83 1.2 SW 13 19 7 10 990.8 990.8 9.0
23/07:30pm 6.6 3.7 4.6 87 0.9 SW 9 15 5 8 990.7 990.7 9.0
23/07:00pm 6.5 4.1 5.1 91 0.6 SW 7 13 4 7 990.3 990.3 9.0
23/06:30pm 6.6 3.9 5.4 92 0.5 SW 9 11 5 6 990.5 990.5 8.8
23/06:00pm 6.8 5.0 5.3 90 0.7 SW 4 6 2 3 990.7 990.7 8.4
23/05:30pm 6.9 4.5 5.2 89 0.7 SW 7 9 4 5 990.2 990.2 8.0
23/05:00pm 7.1 3.2 5.3 88 0.8 SW 15 19 8 10 990.6 990.6 6.8
23/04:30pm 7.3 1.6 4.8 84 1.1 SW 24 30 13 16 990.1 990.1 5.4
23/04:00pm 8.0 3.8 5.8 86 1.0 WSW 17 35 9 19 990.1 990.1 3.4
23/03:30pm 9.2 5.9 6.5 83 1.3 NW 13 19 7 10 989.8 989.8 1.0
23/03:00pm 10.4 7.9 5.0 69 2.5 NNW 7 13 4 7 989.4 989.4 0.0
23/02:30pm 10.7 7.2 5.3 69 2.5 NNW 13 20 7 11 989.1 989.1 0.0
23/02:00pm 10.8 6.9 5.3 69 2.5 WNW 15 22 8 12 989.9 989.9 0.0
23/01:30pm 10.8 7.6 5.3 69 2.5 W 11 19 6 10 990.2 990.2 0.0
23/01:00pm 10.6 6.8 5.6 71 2.3 WNW 15 22 8 12 990.8 990.8 0.0
23/12:30pm 10.9 7.8 5.4 69 2.5 NNW 11 20 6 11 991.0 991.0 0.0
23/12:00pm 10.3 8.7 6.5 77 1.8 NNW 4 6 2 3 991.5 991.5 0.0
23/11:30am 10.2 8.6 6.2 76 1.9 NNW 4 6 2 3 991.8 991.8 0.0
23/11:00am 9.9 7.9 6.3 78 1.7 NNW 6 7 3 4 992.0 992.0 0.0
23/10:30am 10.0 8.2 5.2 72 2.2 NNW 4 4 2 2 993.0 993.0 0.0
23/10:00am 10.0 7.8 5.2 72 2.2 NNW 6 9 3 5 992.9 992.9 0.0
23/09:30am 10.4 8.2 5.2 70 2.4 NNW 6 7 3 4 992.7 992.7 0.0
23/09:00am 9.5 7.0 3.7 67 2.6 NNW 6 11 3 6 992.3 992.3 -
23/08:30am 10.1 5.9 3.6 64 2.8 NNW 15 22 8 12 992.0 992.0 -
23/08:00am 9.8 5.5 3.5 65 2.8 NNW 15 22 8 12 992.0 992.0 -
23/07:30am 9.3 5.4 3.3 66 2.6 NNW 13 17 7 9 991.9 991.9 -
23/07:00am 9.3 5.0 3.1 65 2.7 NNW 15 22 8 12 992.1 992.1 -
23/06:30am 10.4 5.3 3.2 61 3.1 NNW 19 28 10 15 991.8 991.8 -
23/06:00am 9.2 4.5 3.0 65 2.7 NNW 17 22 9 12 991.9 991.9 -
23/05:30am 7.8 4.5 2.3 68 2.3 N 9 15 5 8 992.1 992.1 -
23/05:00am 7.2 4.2 2.3 71 2.0 N 7 13 4 7 992.9 992.9 -
23/04:30am 8.4 5.0 2.0 64 2.7 N 9 15 5 8 992.4 992.4 -
23/04:00am 8.0 5.0 2.3 67 2.4 N 7 11 4 6 992.7 992.7 -
23/03:30am 6.8 2.6 1.9 71 2.0 N 13 20 7 11 992.9 992.9 -
23/03:00am 7.1 1.3 2.4 72 2.0 NE 22 26 12 14 993.7 993.7 0.0
23/02:30am 6.8 3.0 1.5 69 2.1 N 11 17 6 9 994.4 994.4 -
23/02:00am 7.4 3.1 1.0 64 2.6 NNE 13 20 7 11 994.8 994.8 -
23/01:30am 7.9 4.9 1.1 62 2.7 NNW 6 9 3 5 995.4 995.4 -
23/01:00am 8.2 3.9 0.9 60 3.0 NNW 13 19 7 10 995.5 995.5 -
23/12:30am 8.1 4.3 1.5 63 2.7 NW 11 17 6 9 995.9 995.9 -
23/12:00am 8.7 3.3 1.4 60 3.0 NW 19 30 10 16 996.1 996.1 -
 
Date/Time
EST
Tmp

°C
App
Tmp
°C
Dew
Point
°C
Rel
Hum
%
Delta-T

°C
Wind Press
QNH
hPa
Press
MSL
hPa
Rain
since
9 am
mm
Dir
 
Spd
km/h
Gust
km/h
Spd
kts
Gust
kts
22/11:30pm 8.1 1.8 1.5 63 2.7 NW 24 33 13 18 995.9 995.9 -
22/11:00pm 8.1 2.7 1.3 62 2.8 NW 19 35 10 19 995.7 995.7 -
22/10:30pm 8.5 1.8 1.2 60 3.0 NW 26 43 14 23 995.8 995.8 -

Latest Capital City Observations: Canberra | Sydney | Melbourne | Brisbane | Adelaide | Perth | Hobart | Darwin

Other Formats:

Comma delimited format used in spreadsheet applications
http://www.bom.gov.au/fwo/IDT60901/IDT60901.94951.axf

JavaScript Object Notation format (JSON) in row-major order
http://www.bom.gov.au/fwo/IDT60901/IDT60901.94951.json